sensor_id;sensor_type;location;lat;lon;timestamp;P1;durP1;ratioP1;P2;durP2;ratioP2
11957;SDS011;6039;52.576;13.348;2023-11-18T00:03:23;6.30;;;4.13;;
11957;SDS011;6039;52.576;13.348;2023-11-18T00:08:28;5.77;;;3.80;;
11957;SDS011;6039;52.576;13.348;2023-11-18T00:13:35;5.83;;;3.70;;
11957;SDS011;6039;52.576;13.348;2023-11-18T00:18:39;6.50;;;3.93;;
11957;SDS011;6039;52.576;13.348;2023-11-18T00:23:43;6.70;;;4.10;;
11957;SDS011;6039;52.576;13.348;2023-11-18T00:28:51;6.57;;;3.93;;
11957;SDS011;6039;52.576;13.348;2023-11-18T00:33:54;6.53;;;3.90;;
11957;SDS011;6039;52.576;13.348;2023-11-18T00:38:58;6.80;;;3.80;;
11957;SDS011;6039;52.576;13.348;2023-11-18T00:44:07;7.00;;;4.27;;
11957;SDS011;6039;52.576;13.348;2023-11-18T00:49:13;13.70;;;3.67;;
11957;SDS011;6039;52.576;13.348;2023-11-18T00:54:17;7.53;;;4.00;;
11957;SDS011;6039;52.576;13.348;2023-11-18T00:59:24;5.90;;;4.00;;
11957;SDS011;6039;52.576;13.348;2023-11-18T01:04:29;5.40;;;3.77;;
11957;SDS011;6039;52.576;13.348;2023-11-18T01:09:34;9.07;;;4.23;;
11957;SDS011;6039;52.576;13.348;2023-11-18T01:14:41;5.37;;;3.80;;
11957;SDS011;6039;52.576;13.348;2023-11-18T01:19:45;6.47;;;4.10;;
11957;SDS011;6039;52.576;13.348;2023-11-18T01:24:49;6.43;;;3.83;;
11957;SDS011;6039;52.576;13.348;2023-11-18T01:29:56;6.70;;;4.30;;
11957;SDS011;6039;52.576;13.348;2023-11-18T01:35:00;5.17;;;3.70;;
11957;SDS011;6039;52.576;13.348;2023-11-18T01:40:04;7.67;;;3.67;;
11957;SDS011;6039;52.576;13.348;2023-11-18T01:45:14;6.43;;;3.73;;
11957;SDS011;6039;52.576;13.348;2023-11-18T01:50:19;5.10;;;3.50;;
11957;SDS011;6039;52.576;13.348;2023-11-18T01:55:23;7.17;;;3.80;;
11957;SDS011;6039;52.576;13.348;2023-11-18T02:00:31;6.30;;;3.83;;
11957;SDS011;6039;52.576;13.348;2023-11-18T02:05:35;6.10;;;3.50;;
11957;SDS011;6039;52.576;13.348;2023-11-18T02:10:45;6.03;;;3.80;;
11957;SDS011;6039;52.576;13.348;2023-11-18T02:15:55;4.97;;;3.43;;
11957;SDS011;6039;52.576;13.348;2023-11-18T02:21:00;5.20;;;3.93;;
11957;SDS011;6039;52.576;13.348;2023-11-18T02:26:07;6.40;;;4.23;;
11957;SDS011;6039;52.576;13.348;2023-11-18T02:31:13;6.63;;;4.00;;
11957;SDS011;6039;52.576;13.348;2023-11-18T02:36:23;5.20;;;3.63;;
11957;SDS011;6039;52.576;13.348;2023-11-18T02:41:38;8.97;;;3.93;;
11957;SDS011;6039;52.576;13.348;2023-11-18T02:46:45;5.77;;;3.77;;
11957;SDS011;6039;52.576;13.348;2023-11-18T02:51:49;7.67;;;4.00;;
11957;SDS011;6039;52.576;13.348;2023-11-18T02:56:55;6.47;;;4.17;;
11957;SDS011;6039;52.576;13.348;2023-11-18T03:01:59;6.00;;;3.80;;
11957;SDS011;6039;52.576;13.348;2023-11-18T03:07:05;5.30;;;3.70;;
11957;SDS011;6039;52.576;13.348;2023-11-18T03:12:11;5.57;;;3.90;;
11957;SDS011;6039;52.576;13.348;2023-11-18T03:17:16;5.53;;;3.87;;
11957;SDS011;6039;52.576;13.348;2023-11-18T03:22:20;6.10;;;3.70;;
11957;SDS011;6039;52.576;13.348;2023-11-18T03:27:26;5.73;;;3.57;;
11957;SDS011;6039;52.576;13.348;2023-11-18T03:32:30;4.90;;;3.30;;
11957;SDS011;6039;52.576;13.348;2023-11-18T03:37:35;5.20;;;3.30;;
11957;SDS011;6039;52.576;13.348;2023-11-18T03:42:43;5.97;;;3.43;;
11957;SDS011;6039;52.576;13.348;2023-11-18T03:47:48;5.80;;;3.60;;
11957;SDS011;6039;52.576;13.348;2023-11-18T03:52:52;5.30;;;3.17;;
11957;SDS011;6039;52.576;13.348;2023-11-18T03:57:59;5.77;;;3.37;;
11957;SDS011;6039;52.576;13.348;2023-11-18T04:03:03;5.40;;;3.07;;
11957;SDS011;6039;52.576;13.348;2023-11-18T04:08:09;5.70;;;3.30;;
11957;SDS011;6039;52.576;13.348;2023-11-18T04:13:16;4.97;;;3.50;;
11957;SDS011;6039;52.576;13.348;2023-11-18T04:18:20;7.30;;;4.27;;
11957;SDS011;6039;52.576;13.348;2023-11-18T04:23:24;6.30;;;4.20;;
11957;SDS011;6039;52.576;13.348;2023-11-18T04:28:30;6.13;;;3.87;;
11957;SDS011;6039;52.576;13.348;2023-11-18T04:33:34;5.80;;;3.70;;
11957;SDS011;6039;52.576;13.348;2023-11-18T04:38:40;5.27;;;3.60;;
11957;SDS011;6039;52.576;13.348;2023-11-18T04:43:46;7.13;;;4.27;;
11957;SDS011;6039;52.576;13.348;2023-11-18T04:48:50;7.23;;;4.30;;
11957;SDS011;6039;52.576;13.348;2023-11-18T04:53:55;6.33;;;3.80;;
11957;SDS011;6039;52.576;13.348;2023-11-18T04:59:01;7.03;;;4.10;;
11957;SDS011;6039;52.576;13.348;2023-11-18T05:04:05;6.33;;;3.87;;
11957;SDS011;6039;52.576;13.348;2023-11-18T05:09:09;8.73;;;4.20;;
11957;SDS011;6039;52.576;13.348;2023-11-18T05:14:17;8.80;;;4.17;;
11957;SDS011;6039;52.576;13.348;2023-11-18T05:19:21;6.73;;;3.83;;
11957;SDS011;6039;52.576;13.348;2023-11-18T05:24:25;7.57;;;4.40;;
11957;SDS011;6039;52.576;13.348;2023-11-18T05:29:32;11.67;;;4.90;;
11957;SDS011;6039;52.576;13.348;2023-11-18T05:34:37;6.00;;;4.23;;
11957;SDS011;6039;52.576;13.348;2023-11-18T05:39:42;8.57;;;4.77;;
11957;SDS011;6039;52.576;13.348;2023-11-18T05:44:49;8.97;;;4.60;;
11957;SDS011;6039;52.576;13.348;2023-11-18T05:49:58;7.13;;;4.30;;
11957;SDS011;6039;52.576;13.348;2023-11-18T05:55:02;9.17;;;4.73;;
11957;SDS011;6039;52.576;13.348;2023-11-18T06:00:09;6.97;;;4.07;;
11957;SDS011;6039;52.576;13.348;2023-11-18T06:05:15;8.93;;;4.40;;
11957;SDS011;6039;52.576;13.348;2023-11-18T06:10:19;9.27;;;4.70;;
11957;SDS011;6039;52.576;13.348;2023-11-18T06:15:26;8.17;;;4.93;;
11957;SDS011;6039;52.576;13.348;2023-11-18T06:20:30;8.50;;;5.30;;
11957;SDS011;6039;52.576;13.348;2023-11-18T06:25:36;7.53;;;4.77;;
11957;SDS011;6039;52.576;13.348;2023-11-18T06:30:43;9.80;;;4.67;;
11957;SDS011;6039;52.576;13.348;2023-11-18T06:35:47;9.10;;;4.50;;
11957;SDS011;6039;52.576;13.348;2023-11-18T06:40:53;8.10;;;5.07;;
11957;SDS011;6039;52.576;13.348;2023-11-18T06:46:00;8.97;;;4.80;;
11957;SDS011;6039;52.576;13.348;2023-11-18T06:51:05;9.50;;;4.93;;
11957;SDS011;6039;52.576;13.348;2023-11-18T06:56:09;8.20;;;4.83;;
11957;SDS011;6039;52.576;13.348;2023-11-18T07:01:16;9.60;;;5.47;;
11957;SDS011;6039;52.576;13.348;2023-11-18T07:06:20;9.27;;;5.00;;
11957;SDS011;6039;52.576;13.348;2023-11-18T07:11:26;9.83;;;5.40;;
11957;SDS011;6039;52.576;13.348;2023-11-18T07:16:35;8.80;;;5.30;;
11957;SDS011;6039;52.576;13.348;2023-11-18T07:21:40;8.63;;;5.23;;
11957;SDS011;6039;52.576;13.348;2023-11-18T07:26:44;8.63;;;5.07;;
11957;SDS011;6039;52.576;13.348;2023-11-18T07:31:51;10.43;;;5.60;;
11957;SDS011;6039;52.576;13.348;2023-11-18T07:36:55;10.37;;;5.63;;
11957;SDS011;6039;52.576;13.348;2023-11-18T07:41:59;9.77;;;5.57;;
11957;SDS011;6039;52.576;13.348;2023-11-18T07:47:08;11.20;;;5.70;;
11957;SDS011;6039;52.576;13.348;2023-11-18T07:52:12;10.80;;;6.00;;
11957;SDS011;6039;52.576;13.348;2023-11-18T07:57:17;10.53;;;6.10;;
11957;SDS011;6039;52.576;13.348;2023-11-18T08:02:23;8.90;;;5.50;;
11957;SDS011;6039;52.576;13.348;2023-11-18T08:07:28;9.00;;;5.10;;
11957;SDS011;6039;52.576;13.348;2023-11-18T08:12:32;8.57;;;5.40;;
11957;SDS011;6039;52.576;13.348;2023-11-18T08:17:39;10.00;;;4.80;;
11957;SDS011;6039;52.576;13.348;2023-11-18T08:22:43;9.80;;;5.53;;
11957;SDS011;6039;52.576;13.348;2023-11-18T08:27:47;8.73;;;5.20;;
11957;SDS011;6039;52.576;13.348;2023-11-18T08:32:54;11.13;;;5.10;;
11957;SDS011;6039;52.576;13.348;2023-11-18T08:37:58;8.50;;;5.13;;
11957;SDS011;6039;52.576;13.348;2023-11-18T08:43:04;9.83;;;5.60;;
11957;SDS011;6039;52.576;13.348;2023-11-18T08:48:10;9.43;;;5.10;;
11957;SDS011;6039;52.576;13.348;2023-11-18T08:53:16;8.73;;;4.97;;
11957;SDS011;6039;52.576;13.348;2023-11-18T08:58:26;8.03;;;4.70;;
11957;SDS011;6039;52.576;13.348;2023-11-18T09:03:36;8.97;;;5.23;;
11957;SDS011;6039;52.576;13.348;2023-11-18T09:08:43;8.37;;;4.80;;
11957;SDS011;6039;52.576;13.348;2023-11-18T09:13:52;8.87;;;5.10;;
11957;SDS011;6039;52.576;13.348;2023-11-18T09:19:02;10.03;;;5.63;;
11957;SDS011;6039;52.576;13.348;2023-11-18T09:24:07;8.00;;;5.30;;
11957;SDS011;6039;52.576;13.348;2023-11-18T09:29:12;11.40;;;4.87;;
11957;SDS011;6039;52.576;13.348;2023-11-18T09:34:20;9.40;;;4.67;;
11957;SDS011;6039;52.576;13.348;2023-11-18T09:39:27;6.73;;;4.30;;
11957;SDS011;6039;52.576;13.348;2023-11-18T09:44:37;9.27;;;4.87;;
11957;SDS011;6039;52.576;13.348;2023-11-18T09:49:45;10.90;;;5.57;;
11957;SDS011;6039;52.576;13.348;2023-11-18T09:54:55;8.33;;;4.70;;
11957;SDS011;6039;52.576;13.348;2023-11-18T10:00:05;7.23;;;4.70;;
11957;SDS011;6039;52.576;13.348;2023-11-18T10:05:29;9.23;;;5.00;;
11957;SDS011;6039;52.576;13.348;2023-11-18T10:10:34;7.13;;;4.37;;
11957;SDS011;6039;52.576;13.348;2023-11-18T10:15:45;6.27;;;3.90;;
11957;SDS011;6039;52.576;13.348;2023-11-18T10:20:54;7.60;;;3.93;;
11957;SDS011;6039;52.576;13.348;2023-11-18T10:25:59;6.80;;;3.40;;
11957;SDS011;6039;52.576;13.348;2023-11-18T10:31:05;7.00;;;4.10;;
11957;SDS011;6039;52.576;13.348;2023-11-18T10:36:19;6.60;;;3.87;;
11957;SDS011;6039;52.576;13.348;2023-11-18T10:41:25;6.10;;;3.70;;
11957;SDS011;6039;52.576;13.348;2023-11-18T10:46:31;6.47;;;3.87;;
11957;SDS011;6039;52.576;13.348;2023-11-18T10:51:38;7.80;;;4.23;;
11957;SDS011;6039;52.576;13.348;2023-11-18T10:56:46;11.03;;;4.27;;
11957;SDS011;6039;52.576;13.348;2023-11-18T11:01:50;4.83;;;3.37;;
11957;SDS011;6039;52.576;13.348;2023-11-18T11:07:00;6.23;;;4.07;;
11957;SDS011;6039;52.576;13.348;2023-11-18T11:12:07;5.67;;;3.20;;
11957;SDS011;6039;52.576;13.348;2023-11-18T11:17:17;6.17;;;3.57;;
11957;SDS011;6039;52.576;13.348;2023-11-18T11:22:33;9.37;;;3.43;;
11957;SDS011;6039;52.576;13.348;2023-11-18T11:27:45;8.03;;;4.37;;
11957;SDS011;6039;52.576;13.348;2023-11-18T11:32:56;8.40;;;4.50;;
11957;SDS011;6039;52.576;13.348;2023-11-18T11:38:06;8.03;;;4.63;;
11957;SDS011;6039;52.576;13.348;2023-11-18T11:43:13;7.20;;;4.73;;
11957;SDS011;6039;52.576;13.348;2023-11-18T11:48:21;7.77;;;4.80;;
11957;SDS011;6039;52.576;13.348;2023-11-18T11:53:33;9.50;;;5.90;;
11957;SDS011;6039;52.576;13.348;2023-11-18T11:58:45;11.50;;;5.93;;
11957;SDS011;6039;52.576;13.348;2023-11-18T12:03:52;10.73;;;6.13;;
11957;SDS011;6039;52.576;13.348;2023-11-18T12:09:00;9.60;;;6.00;;
11957;SDS011;6039;52.576;13.348;2023-11-18T12:14:07;7.40;;;4.83;;
11957;SDS011;6039;52.576;13.348;2023-11-18T12:19:33;8.67;;;4.93;;
11957;SDS011;6039;52.576;13.348;2023-11-18T12:25:03;8.13;;;4.87;;
11957;SDS011;6039;52.576;13.348;2023-11-18T12:30:39;6.73;;;4.40;;
11957;SDS011;6039;52.576;13.348;2023-11-18T12:41:36;7.23;;;4.13;;
11957;SDS011;6039;52.576;13.348;2023-11-18T12:46:47;7.57;;;4.17;;
11957;SDS011;6039;52.576;13.348;2023-11-18T12:51:53;6.00;;;3.60;;
11957;SDS011;6039;52.576;13.348;2023-11-18T12:57:02;6.93;;;4.17;;
11957;SDS011;6039;52.576;13.348;2023-11-18T13:02:07;6.20;;;4.10;;
11957;SDS011;6039;52.576;13.348;2023-11-18T13:07:13;7.17;;;4.13;;
11957;SDS011;6039;52.576;13.348;2023-11-18T13:12:20;6.23;;;3.73;;
11957;SDS011;6039;52.576;13.348;2023-11-18T13:17:24;6.07;;;3.53;;
11957;SDS011;6039;52.576;13.348;2023-11-18T13:22:29;6.13;;;4.23;;
11957;SDS011;6039;52.576;13.348;2023-11-18T13:27:36;6.50;;;3.93;;
11957;SDS011;6039;52.576;13.348;2023-11-18T13:32:40;6.77;;;3.80;;
11957;SDS011;6039;52.576;13.348;2023-11-18T13:37:46;5.70;;;3.20;;
11957;SDS011;6039;52.576;13.348;2023-11-18T13:48:17;6.23;;;3.53;;
11957;SDS011;6039;52.576;13.348;2023-11-18T13:53:23;4.60;;;3.03;;
11957;SDS011;6039;52.576;13.348;2023-11-18T13:58:31;5.57;;;3.47;;
11957;SDS011;6039;52.576;13.348;2023-11-18T14:03:35;5.60;;;3.30;;
11957;SDS011;6039;52.576;13.348;2023-11-18T14:08:39;4.37;;;2.93;;
11957;SDS011;6039;52.576;13.348;2023-11-18T14:13:47;4.70;;;3.27;;
11957;SDS011;6039;52.576;13.348;2023-11-18T14:18:53;4.97;;;3.50;;
11957;SDS011;6039;52.576;13.348;2023-11-18T14:23:57;7.37;;;4.10;;
11957;SDS011;6039;52.576;13.348;2023-11-18T14:29:05;5.47;;;3.70;;
11957;SDS011;6039;52.576;13.348;2023-11-18T14:34:09;6.80;;;4.00;;
11957;SDS011;6039;52.576;13.348;2023-11-18T14:39:13;8.53;;;4.07;;
11957;SDS011;6039;52.576;13.348;2023-11-18T14:44:25;7.87;;;4.60;;
11957;SDS011;6039;52.576;13.348;2023-11-18T14:49:30;6.73;;;4.07;;
11957;SDS011;6039;52.576;13.348;2023-11-18T14:54:36;8.03;;;4.30;;
11957;SDS011;6039;52.576;13.348;2023-11-18T14:59:42;8.33;;;4.53;;
11957;SDS011;6039;52.576;13.348;2023-11-18T15:04:46;7.63;;;4.80;;
11957;SDS011;6039;52.576;13.348;2023-11-18T15:09:52;8.90;;;5.13;;
11957;SDS011;6039;52.576;13.348;2023-11-18T15:15:00;8.40;;;4.47;;
11957;SDS011;6039;52.576;13.348;2023-11-18T15:20:05;7.83;;;4.67;;
11957;SDS011;6039;52.576;13.348;2023-11-18T15:25:12;12.57;;;5.37;;
11957;SDS011;6039;52.576;13.348;2023-11-18T15:30:20;9.40;;;5.23;;
11957;SDS011;6039;52.576;13.348;2023-11-18T15:35:24;9.83;;;5.47;;
11957;SDS011;6039;52.576;13.348;2023-11-18T15:40:28;8.90;;;4.73;;
11957;SDS011;6039;52.576;13.348;2023-11-18T15:45:35;10.73;;;5.27;;
11957;SDS011;6039;52.576;13.348;2023-11-18T15:50:39;9.57;;;5.67;;
11957;SDS011;6039;52.576;13.348;2023-11-18T15:55:43;7.73;;;4.80;;
11957;SDS011;6039;52.576;13.348;2023-11-18T16:00:50;9.17;;;5.40;;
11957;SDS011;6039;52.576;13.348;2023-11-18T16:05:54;8.53;;;4.93;;
11957;SDS011;6039;52.576;13.348;2023-11-18T16:10:58;9.27;;;5.40;;
11957;SDS011;6039;52.576;13.348;2023-11-18T16:16:05;8.93;;;5.50;;
11957;SDS011;6039;52.576;13.348;2023-11-18T16:21:09;7.93;;;5.20;;
11957;SDS011;6039;52.576;13.348;2023-11-18T16:26:15;7.97;;;4.57;;
11957;SDS011;6039;52.576;13.348;2023-11-18T16:31:22;7.07;;;4.57;;
11957;SDS011;6039;52.576;13.348;2023-11-18T16:36:26;8.07;;;4.93;;
11957;SDS011;6039;52.576;13.348;2023-11-18T16:41:30;10.63;;;5.53;;
11957;SDS011;6039;52.576;13.348;2023-11-18T16:46:39;9.77;;;4.87;;
11957;SDS011;6039;52.576;13.348;2023-11-18T16:51:43;7.17;;;4.00;;
11957;SDS011;6039;52.576;13.348;2023-11-18T16:56:48;7.27;;;4.57;;
11957;SDS011;6039;52.576;13.348;2023-11-18T17:01:55;7.73;;;4.83;;
11957;SDS011;6039;52.576;13.348;2023-11-18T17:06:59;8.57;;;5.43;;
11957;SDS011;6039;52.576;13.348;2023-11-18T17:12:03;8.33;;;5.13;;
11957;SDS011;6039;52.576;13.348;2023-11-18T17:17:10;10.37;;;6.00;;
11957;SDS011;6039;52.576;13.348;2023-11-18T17:22:14;8.27;;;5.17;;
11957;SDS011;6039;52.576;13.348;2023-11-18T17:27:18;8.77;;;5.10;;
11957;SDS011;6039;52.576;13.348;2023-11-18T17:32:27;9.57;;;5.50;;
11957;SDS011;6039;52.576;13.348;2023-11-18T17:37:31;10.60;;;5.63;;
11957;SDS011;6039;52.576;13.348;2023-11-18T17:42:35;10.07;;;5.63;;
11957;SDS011;6039;52.576;13.348;2023-11-18T17:47:42;9.43;;;5.47;;
11957;SDS011;6039;52.576;13.348;2023-11-18T17:52:46;9.83;;;5.67;;
11957;SDS011;6039;52.576;13.348;2023-11-18T17:57:50;9.27;;;5.47;;
11957;SDS011;6039;52.576;13.348;2023-11-18T18:02:58;9.63;;;5.50;;
11957;SDS011;6039;52.576;13.348;2023-11-18T18:08:03;10.67;;;6.10;;
11957;SDS011;6039;52.576;13.348;2023-11-18T18:13:07;9.57;;;5.53;;
11957;SDS011;6039;52.576;13.348;2023-11-18T18:18:14;8.23;;;5.27;;
11957;SDS011;6039;52.576;13.348;2023-11-18T18:23:18;8.23;;;4.93;;
11957;SDS011;6039;52.576;13.348;2023-11-18T18:28:22;8.90;;;5.63;;
11957;SDS011;6039;52.576;13.348;2023-11-18T18:33:28;8.50;;;5.43;;
11957;SDS011;6039;52.576;13.348;2023-11-18T18:38:32;11.27;;;5.80;;
11957;SDS011;6039;52.576;13.348;2023-11-18T18:43:37;8.73;;;5.40;;
11957;SDS011;6039;52.576;13.348;2023-11-18T18:48:43;12.23;;;6.27;;
11957;SDS011;6039;52.576;13.348;2023-11-18T18:53:48;10.87;;;5.83;;
11957;SDS011;6039;52.576;13.348;2023-11-18T18:58:52;10.77;;;6.47;;
11957;SDS011;6039;52.576;13.348;2023-11-18T19:03:59;10.37;;;5.83;;
11957;SDS011;6039;52.576;13.348;2023-11-18T19:09:03;11.63;;;6.73;;
11957;SDS011;6039;52.576;13.348;2023-11-18T19:14:08;10.63;;;6.17;;
11957;SDS011;6039;52.576;13.348;2023-11-18T19:19:14;11.47;;;7.07;;
11957;SDS011;6039;52.576;13.348;2023-11-18T19:24:19;9.17;;;6.27;;
11957;SDS011;6039;52.576;13.348;2023-11-18T19:29:23;12.23;;;6.10;;
11957;SDS011;6039;52.576;13.348;2023-11-18T19:34:33;10.00;;;6.43;;
11957;SDS011;6039;52.576;13.348;2023-11-18T19:39:37;10.80;;;6.70;;
11957;SDS011;6039;52.576;13.348;2023-11-18T19:44:41;9.43;;;5.70;;
11957;SDS011;6039;52.576;13.348;2023-11-18T19:49:47;8.50;;;5.50;;
11957;SDS011;6039;52.576;13.348;2023-11-18T19:54:51;10.47;;;5.83;;
11957;SDS011;6039;52.576;13.348;2023-11-18T19:59:55;8.83;;;5.77;;
11957;SDS011;6039;52.576;13.348;2023-11-18T20:05:02;9.77;;;5.97;;
11957;SDS011;6039;52.576;13.348;2023-11-18T20:10:09;9.83;;;5.83;;
11957;SDS011;6039;52.576;13.348;2023-11-18T20:15:14;9.00;;;5.10;;
11957;SDS011;6039;52.576;13.348;2023-11-18T20:20:20;9.23;;;5.10;;
11957;SDS011;6039;52.576;13.348;2023-11-18T20:25:26;8.87;;;5.50;;
11957;SDS011;6039;52.576;13.348;2023-11-18T20:30:30;9.23;;;5.53;;
11957;SDS011;6039;52.576;13.348;2023-11-18T20:35:37;8.47;;;5.33;;
11957;SDS011;6039;52.576;13.348;2023-11-18T20:40:41;8.50;;;5.47;;
11957;SDS011;6039;52.576;13.348;2023-11-18T20:45:46;8.17;;;5.33;;
11957;SDS011;6039;52.576;13.348;2023-11-18T20:50:52;9.60;;;5.47;;
11957;SDS011;6039;52.576;13.348;2023-11-18T20:55:56;9.87;;;5.57;;
11957;SDS011;6039;52.576;13.348;2023-11-18T21:01:01;7.07;;;4.80;;
11957;SDS011;6039;52.576;13.348;2023-11-18T21:06:12;7.90;;;4.77;;
11957;SDS011;6039;52.576;13.348;2023-11-18T21:11:18;8.23;;;4.97;;
11957;SDS011;6039;52.576;13.348;2023-11-18T21:16:24;9.03;;;5.07;;
11957;SDS011;6039;52.576;13.348;2023-11-18T21:21:30;7.23;;;4.80;;
11957;SDS011;6039;52.576;13.348;2023-11-18T21:26:34;9.00;;;5.07;;
11957;SDS011;6039;52.576;13.348;2023-11-18T21:31:38;6.70;;;4.53;;
11957;SDS011;6039;52.576;13.348;2023-11-18T21:36:45;7.70;;;4.93;;
11957;SDS011;6039;52.576;13.348;2023-11-18T21:41:49;6.63;;;4.57;;
11957;SDS011;6039;52.576;13.348;2023-11-18T21:46:53;6.93;;;4.73;;
11957;SDS011;6039;52.576;13.348;2023-11-18T21:51:59;7.50;;;4.90;;
11957;SDS011;6039;52.576;13.348;2023-11-18T21:57:03;7.17;;;4.73;;
11957;SDS011;6039;52.576;13.348;2023-11-18T22:02:09;9.13;;;5.37;;
11957;SDS011;6039;52.576;13.348;2023-11-18T22:07:16;9.10;;;5.00;;
11957;SDS011;6039;52.576;13.348;2023-11-18T22:12:20;9.30;;;5.13;;
11957;SDS011;6039;52.576;13.348;2023-11-18T22:17:26;7.50;;;4.90;;
11957;SDS011;6039;52.576;13.348;2023-11-18T22:22:32;8.70;;;5.27;;
11957;SDS011;6039;52.576;13.348;2023-11-18T22:27:36;9.37;;;5.23;;
11957;SDS011;6039;52.576;13.348;2023-11-18T22:32:41;7.63;;;5.10;;
11957;SDS011;6039;52.576;13.348;2023-11-18T22:37:50;8.33;;;5.20;;
11957;SDS011;6039;52.576;13.348;2023-11-18T22:42:55;9.00;;;5.20;;
11957;SDS011;6039;52.576;13.348;2023-11-18T22:47:59;8.93;;;4.90;;
11957;SDS011;6039;52.576;13.348;2023-11-18T22:53:06;9.33;;;5.23;;
11957;SDS011;6039;52.576;13.348;2023-11-18T22:58:11;7.87;;;5.43;;
11957;SDS011;6039;52.576;13.348;2023-11-18T23:03:15;10.47;;;6.10;;
11957;SDS011;6039;52.576;13.348;2023-11-18T23:08:22;8.67;;;5.40;;
11957;SDS011;6039;52.576;13.348;2023-11-18T23:13:25;10.63;;;5.73;;
11957;SDS011;6039;52.576;13.348;2023-11-18T23:18:30;8.23;;;5.37;;
11957;SDS011;6039;52.576;13.348;2023-11-18T23:23:36;8.33;;;5.47;;
11957;SDS011;6039;52.576;13.348;2023-11-18T23:28:42;12.30;;;5.83;;
11957;SDS011;6039;52.576;13.348;2023-11-18T23:33:46;8.67;;;5.50;;
11957;SDS011;6039;52.576;13.348;2023-11-18T23:38:52;9.37;;;5.67;;
11957;SDS011;6039;52.576;13.348;2023-11-18T23:43:57;10.37;;;5.97;;
11957;SDS011;6039;52.576;13.348;2023-11-18T23:49:01;8.03;;;5.47;;
11957;SDS011;6039;52.576;13.348;2023-11-18T23:54:12;10.17;;;5.73;;
11957;SDS011;6039;52.576;13.348;2023-11-18T23:59:16;9.60;;;5.80;;
